sensor_id;sensor_type;location;lat;lon;timestamp;P1;durP1;ratioP1;P2;durP2;ratioP2
22449;SDS011;11392;57.390;-2.468;2023-05-10T00:00:36;41.75;;;12.60;;
22449;SDS011;11392;57.390;-2.468;2023-05-10T00:03:03;33.80;;;12.80;;
22449;SDS011;11392;57.390;-2.468;2023-05-10T00:05:31;36.38;;;12.02;;
22449;SDS011;11392;57.390;-2.468;2023-05-10T00:07:58;34.92;;;13.00;;
22449;SDS011;11392;57.390;-2.468;2023-05-10T00:10:26;68.78;;;16.70;;
22449;SDS011;11392;57.390;-2.468;2023-05-10T00:12:53;22.17;;;12.63;;
22449;SDS011;11392;57.390;-2.468;2023-05-10T00:15:20;14.48;;;10.73;;
22449;SDS011;11392;57.390;-2.468;2023-05-10T00:17:47;13.63;;;10.90;;
22449;SDS011;11392;57.390;-2.468;2023-05-10T00:20:14;17.40;;;10.85;;
22449;SDS011;11392;57.390;-2.468;2023-05-10T00:22:42;15.52;;;10.95;;
22449;SDS011;11392;57.390;-2.468;2023-05-10T00:25:09;18.58;;;13.02;;
22449;SDS011;11392;57.390;-2.468;2023-05-10T00:27:36;21.67;;;14.80;;
22449;SDS011;11392;57.390;-2.468;2023-05-10T00:30:04;14.85;;;10.57;;
22449;SDS011;11392;57.390;-2.468;2023-05-10T00:32:31;12.30;;;8.75;;
22449;SDS011;11392;57.390;-2.468;2023-05-10T00:34:58;18.50;;;12.13;;
22449;SDS011;11392;57.390;-2.468;2023-05-10T00:37:25;20.17;;;12.55;;
22449;SDS011;11392;57.390;-2.468;2023-05-10T00:39:52;16.90;;;11.50;;
22449;SDS011;11392;57.390;-2.468;2023-05-10T00:42:19;23.25;;;14.20;;
22449;SDS011;11392;57.390;-2.468;2023-05-10T00:44:46;22.55;;;14.45;;
22449;SDS011;11392;57.390;-2.468;2023-05-10T00:47:14;20.55;;;13.15;;
22449;SDS011;11392;57.390;-2.468;2023-05-10T00:49:41;23.02;;;13.40;;
22449;SDS011;11392;57.390;-2.468;2023-05-10T00:52:09;18.85;;;13.05;;
22449;SDS011;11392;57.390;-2.468;2023-05-10T00:54:36;16.75;;;10.57;;
22449;SDS011;11392;57.390;-2.468;2023-05-10T00:57:03;18.83;;;11.80;;
22449;SDS011;11392;57.390;-2.468;2023-05-10T00:59:30;12.65;;;8.23;;
22449;SDS011;11392;57.390;-2.468;2023-05-10T01:01:58;11.77;;;8.18;;
22449;SDS011;11392;57.390;-2.468;2023-05-10T01:04:25;11.27;;;8.15;;
22449;SDS011;11392;57.390;-2.468;2023-05-10T01:06:52;12.60;;;8.82;;
22449;SDS011;11392;57.390;-2.468;2023-05-10T01:09:20;11.85;;;8.15;;
22449;SDS011;11392;57.390;-2.468;2023-05-10T01:11:47;14.80;;;10.07;;
22449;SDS011;11392;57.390;-2.468;2023-05-10T01:14:16;10.38;;;8.45;;
22449;SDS011;11392;57.390;-2.468;2023-05-10T01:16:46;14.07;;;9.75;;
22449;SDS011;11392;57.390;-2.468;2023-05-10T01:19:25;11.45;;;8.45;;
22449;SDS011;11392;57.390;-2.468;2023-05-10T01:24:33;15.27;;;9.82;;
22449;SDS011;11392;57.390;-2.468;2023-05-10T01:27:46;8.77;;;6.82;;
22449;SDS011;11392;57.390;-2.468;2023-05-10T01:30:31;8.88;;;7.10;;
22449;SDS011;11392;57.390;-2.468;2023-05-10T01:38:33;8.55;;;6.82;;
22449;SDS011;11392;57.390;-2.468;2023-05-10T01:41:07;8.40;;;6.57;;
22449;SDS011;11392;57.390;-2.468;2023-05-10T01:49:43;12.55;;;8.98;;
22449;SDS011;11392;57.390;-2.468;2023-05-10T01:52:16;12.95;;;9.52;;
22449;SDS011;11392;57.390;-2.468;2023-05-10T01:54:49;12.90;;;9.02;;
22449;SDS011;11392;57.390;-2.468;2023-05-10T01:57:30;14.27;;;9.88;;
22449;SDS011;11392;57.390;-2.468;2023-05-10T02:00:03;13.15;;;10.02;;
22449;SDS011;11392;57.390;-2.468;2023-05-10T02:02:37;14.73;;;11.32;;
22449;SDS011;11392;57.390;-2.468;2023-05-10T02:05:06;14.57;;;10.75;;
22449;SDS011;11392;57.390;-2.468;2023-05-10T02:07:35;17.13;;;11.38;;
22449;SDS011;11392;57.390;-2.468;2023-05-10T02:10:05;16.00;;;11.02;;
22449;SDS011;11392;57.390;-2.468;2023-05-10T02:12:39;18.08;;;12.27;;
22449;SDS011;11392;57.390;-2.468;2023-05-10T02:15:10;18.52;;;13.02;;
22449;SDS011;11392;57.390;-2.468;2023-05-10T02:17:39;14.38;;;10.25;;
22449;SDS011;11392;57.390;-2.468;2023-05-10T02:20:08;13.95;;;9.73;;
22449;SDS011;11392;57.390;-2.468;2023-05-10T02:22:37;10.77;;;8.15;;
22449;SDS011;11392;57.390;-2.468;2023-05-10T02:25:06;10.93;;;8.40;;
22449;SDS011;11392;57.390;-2.468;2023-05-10T02:27:34;16.67;;;9.80;;
22449;SDS011;11392;57.390;-2.468;2023-05-10T02:30:03;18.33;;;11.48;;
22449;SDS011;11392;57.390;-2.468;2023-05-10T02:32:32;15.25;;;8.77;;
22449;SDS011;11392;57.390;-2.468;2023-05-10T02:35:01;23.23;;;11.98;;
22449;SDS011;11392;57.390;-2.468;2023-05-10T02:37:30;12.35;;;8.25;;
22449;SDS011;11392;57.390;-2.468;2023-05-10T02:39:58;17.45;;;9.15;;
22449;SDS011;11392;57.390;-2.468;2023-05-10T02:42:27;46.83;;;11.63;;
22449;SDS011;11392;57.390;-2.468;2023-05-10T02:45:02;94.72;;;16.10;;
22449;SDS011;11392;57.390;-2.468;2023-05-10T02:47:38;100.72;;;17.27;;
22449;SDS011;11392;57.390;-2.468;2023-05-10T02:50:05;75.57;;;15.70;;
22449;SDS011;11392;57.390;-2.468;2023-05-10T02:52:42;81.90;;;15.30;;
22449;SDS011;11392;57.390;-2.468;2023-05-10T02:55:14;32.75;;;10.23;;
22449;SDS011;11392;57.390;-2.468;2023-05-10T02:57:44;20.38;;;9.80;;
22449;SDS011;11392;57.390;-2.468;2023-05-10T03:00:18;123.90;;;22.38;;
22449;SDS011;11392;57.390;-2.468;2023-05-10T03:02:45;62.72;;;16.77;;
22449;SDS011;11392;57.390;-2.468;2023-05-10T03:05:12;42.03;;;14.80;;
22449;SDS011;11392;57.390;-2.468;2023-05-10T03:07:39;49.85;;;13.45;;
22449;SDS011;11392;57.390;-2.468;2023-05-10T03:10:06;43.67;;;12.20;;
22449;SDS011;11392;57.390;-2.468;2023-05-10T03:20:42;18.60;;;9.57;;
22449;SDS011;11392;57.390;-2.468;2023-05-10T03:23:13;42.97;;;14.25;;
22449;SDS011;11392;57.390;-2.468;2023-05-10T03:25:55;42.97;;;10.95;;
22449;SDS011;11392;57.390;-2.468;2023-05-10T03:28:22;55.38;;;13.05;;
22449;SDS011;11392;57.390;-2.468;2023-05-10T03:30:53;40.10;;;11.15;;
22449;SDS011;11392;57.390;-2.468;2023-05-10T03:33:22;30.90;;;10.57;;
22449;SDS011;11392;57.390;-2.468;2023-05-10T03:35:48;28.38;;;10.65;;
22449;SDS011;11392;57.390;-2.468;2023-05-10T03:38:15;43.67;;;10.43;;
22449;SDS011;11392;57.390;-2.468;2023-05-10T03:40:42;49.55;;;10.05;;
22449;SDS011;11392;57.390;-2.468;2023-05-10T03:43:09;60.50;;;9.40;;
22449;SDS011;11392;57.390;-2.468;2023-05-10T03:45:37;14.43;;;5.90;;
22449;SDS011;11392;57.390;-2.468;2023-05-10T03:48:04;44.38;;;7.15;;
22449;SDS011;11392;57.390;-2.468;2023-05-10T03:50:32;55.92;;;8.35;;
22449;SDS011;11392;57.390;-2.468;2023-05-10T03:52:59;113.72;;;12.23;;
22449;SDS011;11392;57.390;-2.468;2023-05-10T03:55:26;113.70;;;10.80;;
22449;SDS011;11392;57.390;-2.468;2023-05-10T03:57:53;47.63;;;6.43;;
22449;SDS011;11392;57.390;-2.468;2023-05-10T04:00:20;36.58;;;4.78;;
22449;SDS011;11392;57.390;-2.468;2023-05-10T04:02:47;119.10;;;10.02;;
22449;SDS011;11392;57.390;-2.468;2023-05-10T04:05:14;59.80;;;7.10;;
22449;SDS011;11392;57.390;-2.468;2023-05-10T04:07:41;61.75;;;7.00;;
22449;SDS011;11392;57.390;-2.468;2023-05-10T04:10:10;93.82;;;8.82;;
22449;SDS011;11392;57.390;-2.468;2023-05-10T04:12:38;44.83;;;5.97;;
22449;SDS011;11392;57.390;-2.468;2023-05-10T04:15:05;116.93;;;10.02;;
22449;SDS011;11392;57.390;-2.468;2023-05-10T04:17:33;39.58;;;5.05;;
22449;SDS011;11392;57.390;-2.468;2023-05-10T04:20:00;103.10;;;9.57;;
22449;SDS011;11392;57.390;-2.468;2023-05-10T04:22:27;41.42;;;5.38;;
22449;SDS011;11392;57.390;-2.468;2023-05-10T04:24:55;43.15;;;6.07;;
22449;SDS011;11392;57.390;-2.468;2023-05-10T04:27:22;54.15;;;5.68;;
22449;SDS011;11392;57.390;-2.468;2023-05-10T04:29:49;87.93;;;8.07;;
22449;SDS011;11392;57.390;-2.468;2023-05-10T04:32:17;67.10;;;6.65;;
22449;SDS011;11392;57.390;-2.468;2023-05-10T04:34:44;26.85;;;3.65;;
22449;SDS011;11392;57.390;-2.468;2023-05-10T04:37:11;44.03;;;4.78;;
22449;SDS011;11392;57.390;-2.468;2023-05-10T04:39:38;71.03;;;6.93;;
22449;SDS011;11392;57.390;-2.468;2023-05-10T04:42:07;112.03;;;9.00;;
22449;SDS011;11392;57.390;-2.468;2023-05-10T04:44:34;67.30;;;5.57;;
22449;SDS011;11392;57.390;-2.468;2023-05-10T04:47:02;44.00;;;4.15;;
22449;SDS011;11392;57.390;-2.468;2023-05-10T04:49:29;42.72;;;3.72;;
22449;SDS011;11392;57.390;-2.468;2023-05-10T04:51:56;57.85;;;5.22;;
22449;SDS011;11392;57.390;-2.468;2023-05-10T04:54:24;61.33;;;5.65;;
22449;SDS011;11392;57.390;-2.468;2023-05-10T04:56:51;30.75;;;2.90;;
22449;SDS011;11392;57.390;-2.468;2023-05-10T04:59:18;23.25;;;2.92;;
22449;SDS011;11392;57.390;-2.468;2023-05-10T05:01:45;61.92;;;5.85;;
22449;SDS011;11392;57.390;-2.468;2023-05-10T05:04:12;17.80;;;2.70;;
22449;SDS011;11392;57.390;-2.468;2023-05-10T05:06:40;81.53;;;7.82;;
22449;SDS011;11392;57.390;-2.468;2023-05-10T05:09:08;16.88;;;3.30;;
22449;SDS011;11392;57.390;-2.468;2023-05-10T05:11:36;46.60;;;6.10;;
22449;SDS011;11392;57.390;-2.468;2023-05-10T05:14:03;37.28;;;3.97;;
22449;SDS011;11392;57.390;-2.468;2023-05-10T05:16:30;18.85;;;3.45;;
22449;SDS011;11392;57.390;-2.468;2023-05-10T05:18:59;32.15;;;4.32;;
22449;SDS011;11392;57.390;-2.468;2023-05-10T05:21:27;95.53;;;8.18;;
22449;SDS011;11392;57.390;-2.468;2023-05-10T05:23:55;43.58;;;4.30;;
22449;SDS011;11392;57.390;-2.468;2023-05-10T05:26:22;22.13;;;3.33;;
22449;SDS011;11392;57.390;-2.468;2023-05-10T05:28:49;16.77;;;2.63;;
22449;SDS011;11392;57.390;-2.468;2023-05-10T05:31:19;13.70;;;2.50;;
22449;SDS011;11392;57.390;-2.468;2023-05-10T05:33:46;21.98;;;2.80;;
22449;SDS011;11392;57.390;-2.468;2023-05-10T05:36:13;6.63;;;1.75;;
22449;SDS011;11392;57.390;-2.468;2023-05-10T05:38:40;82.30;;;7.00;;
22449;SDS011;11392;57.390;-2.468;2023-05-10T05:41:07;50.30;;;5.60;;
22449;SDS011;11392;57.390;-2.468;2023-05-10T05:43:34;83.40;;;6.68;;
22449;SDS011;11392;57.390;-2.468;2023-05-10T05:46:03;49.85;;;5.40;;
22449;SDS011;11392;57.390;-2.468;2023-05-10T05:48:30;34.70;;;4.20;;
22449;SDS011;11392;57.390;-2.468;2023-05-10T05:50:58;94.45;;;7.68;;
22449;SDS011;11392;57.390;-2.468;2023-05-10T05:53:25;69.05;;;5.70;;
22449;SDS011;11392;57.390;-2.468;2023-05-10T05:55:53;82.55;;;7.38;;
22449;SDS011;11392;57.390;-2.468;2023-05-10T05:58:21;67.18;;;5.68;;
22449;SDS011;11392;57.390;-2.468;2023-05-10T06:00:48;77.13;;;7.07;;
22449;SDS011;11392;57.390;-2.468;2023-05-10T06:03:16;50.65;;;5.10;;
22449;SDS011;11392;57.390;-2.468;2023-05-10T06:05:44;20.63;;;3.63;;
22449;SDS011;11392;57.390;-2.468;2023-05-10T06:08:11;15.25;;;2.92;;
22449;SDS011;11392;57.390;-2.468;2023-05-10T06:10:38;32.63;;;3.72;;
22449;SDS011;11392;57.390;-2.468;2023-05-10T06:13:05;58.15;;;6.07;;
22449;SDS011;11392;57.390;-2.468;2023-05-10T06:15:32;40.55;;;4.07;;
22449;SDS011;11392;57.390;-2.468;2023-05-10T06:17:59;14.43;;;2.40;;
22449;SDS011;11392;57.390;-2.468;2023-05-10T06:20:26;40.25;;;4.32;;
22449;SDS011;11392;57.390;-2.468;2023-05-10T06:22:54;38.88;;;3.67;;
22449;SDS011;11392;57.390;-2.468;2023-05-10T06:25:21;26.60;;;3.00;;
22449;SDS011;11392;57.390;-2.468;2023-05-10T06:27:48;59.05;;;6.18;;
22449;SDS011;11392;57.390;-2.468;2023-05-10T06:30:19;22.50;;;3.22;;
22449;SDS011;11392;57.390;-2.468;2023-05-10T06:32:46;38.63;;;3.75;;
22449;SDS011;11392;57.390;-2.468;2023-05-10T06:35:13;34.67;;;3.63;;
22449;SDS011;11392;57.390;-2.468;2023-05-10T06:37:40;18.48;;;3.33;;
22449;SDS011;11392;57.390;-2.468;2023-05-10T06:40:08;44.28;;;6.05;;
22449;SDS011;11392;57.390;-2.468;2023-05-10T06:42:35;22.52;;;3.70;;
22449;SDS011;11392;57.390;-2.468;2023-05-10T06:45:02;46.35;;;5.72;;
22449;SDS011;11392;57.390;-2.468;2023-05-10T06:47:30;54.20;;;5.70;;
22449;SDS011;11392;57.390;-2.468;2023-05-10T06:49:58;30.23;;;3.78;;
22449;SDS011;11392;57.390;-2.468;2023-05-10T06:52:25;33.00;;;4.63;;
22449;SDS011;11392;57.390;-2.468;2023-05-10T06:54:52;14.57;;;3.63;;
22449;SDS011;11392;57.390;-2.468;2023-05-10T06:57:19;8.63;;;5.15;;
22449;SDS011;11392;57.390;-2.468;2023-05-10T06:59:57;29.80;;;5.28;;
22449;SDS011;11392;57.390;-2.468;2023-05-10T07:02:24;21.33;;;3.67;;
22449;SDS011;11392;57.390;-2.468;2023-05-10T07:04:52;27.00;;;4.53;;
22449;SDS011;11392;57.390;-2.468;2023-05-10T07:07:19;7.28;;;3.47;;
22449;SDS011;11392;57.390;-2.468;2023-05-10T07:09:46;51.40;;;7.95;;
22449;SDS011;11392;57.390;-2.468;2023-05-10T07:12:14;5.13;;;3.58;;
22449;SDS011;11392;57.390;-2.468;2023-05-10T07:14:41;5.93;;;4.07;;
22449;SDS011;11392;57.390;-2.468;2023-05-10T07:17:09;5.18;;;3.47;;
22449;SDS011;11392;57.390;-2.468;2023-05-10T07:19:36;10.40;;;4.97;;
22449;SDS011;11392;57.390;-2.468;2023-05-10T07:22:03;7.60;;;4.18;;
22449;SDS011;11392;57.390;-2.468;2023-05-10T07:24:30;15.35;;;6.70;;
22449;SDS011;11392;57.390;-2.468;2023-05-10T07:26:58;24.75;;;5.82;;
22449;SDS011;11392;57.390;-2.468;2023-05-10T07:29:25;9.43;;;4.47;;
22449;SDS011;11392;57.390;-2.468;2023-05-10T07:31:52;23.50;;;5.97;;
22449;SDS011;11392;57.390;-2.468;2023-05-10T07:34:23;58.03;;;9.20;;
22449;SDS011;11392;57.390;-2.468;2023-05-10T07:36:51;31.50;;;7.57;;
22449;SDS011;11392;57.390;-2.468;2023-05-10T07:39:19;7.60;;;5.00;;
22449;SDS011;11392;57.390;-2.468;2023-05-10T07:41:53;10.38;;;5.85;;
22449;SDS011;11392;57.390;-2.468;2023-05-10T07:44:21;9.48;;;5.63;;
22449;SDS011;11392;57.390;-2.468;2023-05-10T07:46:48;9.77;;;6.35;;
22449;SDS011;11392;57.390;-2.468;2023-05-10T07:49:15;10.63;;;6.05;;
22449;SDS011;11392;57.390;-2.468;2023-05-10T07:51:42;8.98;;;6.82;;
22449;SDS011;11392;57.390;-2.468;2023-05-10T07:54:10;10.35;;;7.07;;
22449;SDS011;11392;57.390;-2.468;2023-05-10T07:56:37;7.70;;;5.40;;
22449;SDS011;11392;57.390;-2.468;2023-05-10T07:59:04;12.80;;;7.97;;
22449;SDS011;11392;57.390;-2.468;2023-05-10T08:01:34;10.90;;;7.22;;
22449;SDS011;11392;57.390;-2.468;2023-05-10T08:04:02;7.95;;;6.35;;
22449;SDS011;11392;57.390;-2.468;2023-05-10T08:06:29;8.82;;;5.60;;
22449;SDS011;11392;57.390;-2.468;2023-05-10T08:08:56;7.60;;;5.88;;
22449;SDS011;11392;57.390;-2.468;2023-05-10T08:11:24;22.17;;;8.95;;
22449;SDS011;11392;57.390;-2.468;2023-05-10T08:13:51;12.70;;;7.57;;
22449;SDS011;11392;57.390;-2.468;2023-05-10T08:16:19;15.05;;;8.55;;
22449;SDS011;11392;57.390;-2.468;2023-05-10T08:18:47;27.52;;;8.93;;
22449;SDS011;11392;57.390;-2.468;2023-05-10T08:21:14;15.02;;;7.97;;
22449;SDS011;11392;57.390;-2.468;2023-05-10T08:23:41;11.32;;;6.70;;
22449;SDS011;11392;57.390;-2.468;2023-05-10T08:26:10;11.50;;;7.88;;
22449;SDS011;11392;57.390;-2.468;2023-05-10T08:28:37;82.22;;;12.93;;
22449;SDS011;11392;57.390;-2.468;2023-05-10T08:31:04;35.92;;;9.30;;
22449;SDS011;11392;57.390;-2.468;2023-05-10T08:33:32;17.88;;;8.30;;
22449;SDS011;11392;57.390;-2.468;2023-05-10T08:35:59;18.55;;;7.25;;
22449;SDS011;11392;57.390;-2.468;2023-05-10T08:38:26;37.42;;;9.18;;
22449;SDS011;11392;57.390;-2.468;2023-05-10T08:40:53;38.38;;;8.60;;
22449;SDS011;11392;57.390;-2.468;2023-05-10T08:43:28;28.27;;;7.55;;
22449;SDS011;11392;57.390;-2.468;2023-05-10T08:45:56;10.80;;;5.65;;
22449;SDS011;11392;57.390;-2.468;2023-05-10T08:48:26;15.73;;;6.60;;
22449;SDS011;11392;57.390;-2.468;2023-05-10T08:50:56;15.32;;;7.07;;
22449;SDS011;11392;57.390;-2.468;2023-05-10T08:53:26;13.98;;;7.20;;
22449;SDS011;11392;57.390;-2.468;2023-05-10T08:55:55;7.22;;;6.22;;
22449;SDS011;11392;57.390;-2.468;2023-05-10T08:58:22;7.35;;;6.32;;
22449;SDS011;11392;57.390;-2.468;2023-05-10T09:00:49;7.78;;;6.43;;
22449;SDS011;11392;57.390;-2.468;2023-05-10T09:03:19;6.68;;;5.97;;
22449;SDS011;11392;57.390;-2.468;2023-05-10T09:05:46;6.70;;;5.60;;
22449;SDS011;11392;57.390;-2.468;2023-05-10T09:08:15;6.90;;;6.13;;
22449;SDS011;11392;57.390;-2.468;2023-05-10T09:10:45;7.43;;;5.43;;
22449;SDS011;11392;57.390;-2.468;2023-05-10T09:13:15;7.45;;;6.55;;
22449;SDS011;11392;57.390;-2.468;2023-05-10T09:15:45;9.82;;;6.68;;
22449;SDS011;11392;57.390;-2.468;2023-05-10T09:18:12;10.77;;;7.55;;
22449;SDS011;11392;57.390;-2.468;2023-05-10T09:20:40;9.50;;;7.97;;
22449;SDS011;11392;57.390;-2.468;2023-05-10T09:23:07;10.35;;;7.90;;
22449;SDS011;11392;57.390;-2.468;2023-05-10T09:25:34;9.23;;;6.53;;
22449;SDS011;11392;57.390;-2.468;2023-05-10T09:28:02;7.75;;;6.82;;
22449;SDS011;11392;57.390;-2.468;2023-05-10T09:30:32;7.53;;;6.72;;
22449;SDS011;11392;57.390;-2.468;2023-05-10T09:32:59;7.55;;;6.72;;
22449;SDS011;11392;57.390;-2.468;2023-05-10T09:35:28;11.20;;;8.63;;
22449;SDS011;11392;57.390;-2.468;2023-05-10T09:37:59;10.18;;;7.00;;
22449;SDS011;11392;57.390;-2.468;2023-05-10T09:40:28;9.23;;;6.97;;
22449;SDS011;11392;57.390;-2.468;2023-05-10T09:43:06;8.07;;;6.93;;
22449;SDS011;11392;57.390;-2.468;2023-05-10T09:45:34;11.70;;;9.57;;
22449;SDS011;11392;57.390;-2.468;2023-05-10T09:48:04;12.15;;;9.02;;
22449;SDS011;11392;57.390;-2.468;2023-05-10T09:50:32;9.18;;;7.30;;
22449;SDS011;11392;57.390;-2.468;2023-05-10T09:53:01;11.65;;;8.20;;
22449;SDS011;11392;57.390;-2.468;2023-05-10T09:58:07;11.68;;;6.70;;
22449;SDS011;11392;57.390;-2.468;2023-05-10T10:00:37;8.40;;;7.47;;
22449;SDS011;11392;57.390;-2.468;2023-05-10T10:03:06;8.50;;;6.72;;
22449;SDS011;11392;57.390;-2.468;2023-05-10T10:05:39;9.00;;;6.90;;
22449;SDS011;11392;57.390;-2.468;2023-05-10T10:08:07;9.93;;;8.20;;
22449;SDS011;11392;57.390;-2.468;2023-05-10T10:10:34;10.18;;;8.70;;
22449;SDS011;11392;57.390;-2.468;2023-05-10T10:13:01;7.38;;;6.60;;
22449;SDS011;11392;57.390;-2.468;2023-05-10T10:15:28;7.80;;;6.95;;
22449;SDS011;11392;57.390;-2.468;2023-05-10T10:17:55;8.95;;;6.60;;
22449;SDS011;11392;57.390;-2.468;2023-05-10T10:20:22;10.55;;;7.38;;
22449;SDS011;11392;57.390;-2.468;2023-05-10T10:22:51;6.82;;;6.13;;
22449;SDS011;11392;57.390;-2.468;2023-05-10T10:25:19;7.72;;;6.65;;
22449;SDS011;11392;57.390;-2.468;2023-05-10T10:32:55;8.90;;;5.55;;
22449;SDS011;11392;57.390;-2.468;2023-05-10T10:35:45;8.98;;;7.22;;
22449;SDS011;11392;57.390;-2.468;2023-05-10T10:38:13;9.63;;;7.72;;
22449;SDS011;11392;57.390;-2.468;2023-05-10T10:40:40;10.68;;;7.07;;
22449;SDS011;11392;57.390;-2.468;2023-05-10T10:48:41;7.18;;;5.90;;
22449;SDS011;11392;57.390;-2.468;2023-05-10T10:51:14;6.75;;;5.15;;
22449;SDS011;11392;57.390;-2.468;2023-05-10T10:53:41;6.05;;;5.45;;
22449;SDS011;11392;57.390;-2.468;2023-05-10T10:56:10;6.55;;;5.78;;
22449;SDS011;11392;57.390;-2.468;2023-05-10T10:58:42;6.95;;;6.20;;
22449;SDS011;11392;57.390;-2.468;2023-05-10T11:01:20;6.95;;;5.50;;
22449;SDS011;11392;57.390;-2.468;2023-05-10T11:06:36;8.07;;;5.10;;
22449;SDS011;11392;57.390;-2.468;2023-05-10T11:09:10;6.20;;;5.70;;
22449;SDS011;11392;57.390;-2.468;2023-05-10T11:11:48;8.45;;;4.88;;
22449;SDS011;11392;57.390;-2.468;2023-05-10T11:14:24;5.88;;;4.15;;
22449;SDS011;11392;57.390;-2.468;2023-05-10T11:16:52;5.78;;;4.07;;
22449;SDS011;11392;57.390;-2.468;2023-05-10T11:19:19;4.97;;;4.13;;
22449;SDS011;11392;57.390;-2.468;2023-05-10T11:21:50;5.15;;;4.60;;
22449;SDS011;11392;57.390;-2.468;2023-05-10T11:24:37;5.90;;;4.53;;
22449;SDS011;11392;57.390;-2.468;2023-05-10T11:27:05;5.07;;;4.57;;
22449;SDS011;11392;57.390;-2.468;2023-05-10T11:29:32;6.18;;;4.03;;
22449;SDS011;11392;57.390;-2.468;2023-05-10T11:31:59;4.40;;;4.00;;
22449;SDS011;11392;57.390;-2.468;2023-05-10T11:34:27;6.88;;;4.60;;
22449;SDS011;11392;57.390;-2.468;2023-05-10T11:36:56;5.43;;;4.93;;
22449;SDS011;11392;57.390;-2.468;2023-05-10T11:39:27;6.28;;;4.50;;
22449;SDS011;11392;57.390;-2.468;2023-05-10T11:41:56;4.80;;;4.22;;
22449;SDS011;11392;57.390;-2.468;2023-05-10T11:44:23;7.05;;;4.75;;
22449;SDS011;11392;57.390;-2.468;2023-05-10T11:46:58;5.55;;;4.93;;
22449;SDS011;11392;57.390;-2.468;2023-05-10T11:49:26;8.48;;;4.80;;
22449;SDS011;11392;57.390;-2.468;2023-05-10T11:52:03;4.10;;;3.70;;
22449;SDS011;11392;57.390;-2.468;2023-05-10T11:54:34;5.15;;;3.92;;
22449;SDS011;11392;57.390;-2.468;2023-05-10T11:57:01;4.22;;;3.83;;
22449;SDS011;11392;57.390;-2.468;2023-05-10T11:59:29;7.20;;;3.83;;
22449;SDS011;11392;57.390;-2.468;2023-05-10T12:01:56;4.57;;;4.10;;
22449;SDS011;11392;57.390;-2.468;2023-05-10T12:04:23;7.30;;;4.75;;
22449;SDS011;11392;57.390;-2.468;2023-05-10T12:06:51;5.05;;;3.88;;
22449;SDS011;11392;57.390;-2.468;2023-05-10T12:09:18;4.60;;;4.07;;
22449;SDS011;11392;57.390;-2.468;2023-05-10T12:12:05;3.97;;;3.60;;
22449;SDS011;11392;57.390;-2.468;2023-05-10T12:14:35;6.00;;;5.40;;
22449;SDS011;11392;57.390;-2.468;2023-05-10T12:17:02;6.85;;;4.30;;
22449;SDS011;11392;57.390;-2.468;2023-05-10T12:19:36;7.70;;;5.00;;
22449;SDS011;11392;57.390;-2.468;2023-05-10T12:22:04;6.50;;;4.95;;
22449;SDS011;11392;57.390;-2.468;2023-05-10T12:24:35;5.38;;;4.43;;
22449;SDS011;11392;57.390;-2.468;2023-05-10T12:27:05;8.15;;;4.95;;
22449;SDS011;11392;57.390;-2.468;2023-05-10T12:29:34;7.47;;;4.55;;
22449;SDS011;11392;57.390;-2.468;2023-05-10T12:32:01;4.90;;;4.45;;
22449;SDS011;11392;57.390;-2.468;2023-05-10T12:34:35;5.13;;;4.57;;
22449;SDS011;11392;57.390;-2.468;2023-05-10T12:37:03;6.13;;;4.55;;
22449;SDS011;11392;57.390;-2.468;2023-05-10T12:39:38;5.85;;;4.18;;
22449;SDS011;11392;57.390;-2.468;2023-05-10T12:42:10;4.07;;;3.67;;
22449;SDS011;11392;57.390;-2.468;2023-05-10T12:44:38;4.18;;;3.88;;
22449;SDS011;11392;57.390;-2.468;2023-05-10T12:47:06;5.28;;;4.40;;
22449;SDS011;11392;57.390;-2.468;2023-05-10T12:49:33;4.85;;;4.05;;
22449;SDS011;11392;57.390;-2.468;2023-05-10T12:52:00;6.28;;;5.65;;
22449;SDS011;11392;57.390;-2.468;2023-05-10T12:54:27;6.28;;;5.70;;
22449;SDS011;11392;57.390;-2.468;2023-05-10T12:56:54;5.88;;;5.38;;
22449;SDS011;11392;57.390;-2.468;2023-05-10T12:59:21;6.00;;;5.40;;
22449;SDS011;11392;57.390;-2.468;2023-05-10T13:01:49;5.65;;;5.18;;
22449;SDS011;11392;57.390;-2.468;2023-05-10T13:04:16;6.13;;;5.53;;
22449;SDS011;11392;57.390;-2.468;2023-05-10T13:06:43;6.43;;;5.90;;
22449;SDS011;11392;57.390;-2.468;2023-05-10T13:09:10;7.00;;;6.30;;
22449;SDS011;11392;57.390;-2.468;2023-05-10T13:11:37;7.38;;;5.85;;
22449;SDS011;11392;57.390;-2.468;2023-05-10T13:14:04;7.43;;;6.68;;
22449;SDS011;11392;57.390;-2.468;2023-05-10T13:16:31;6.35;;;5.75;;
22449;SDS011;11392;57.390;-2.468;2023-05-10T13:18:58;7.30;;;6.03;;
22449;SDS011;11392;57.390;-2.468;2023-05-10T13:21:25;6.70;;;6.00;;
22449;SDS011;11392;57.390;-2.468;2023-05-10T13:23:53;6.97;;;6.15;;
22449;SDS011;11392;57.390;-2.468;2023-05-10T13:26:20;5.97;;;5.38;;
22449;SDS011;11392;57.390;-2.468;2023-05-10T13:28:47;7.43;;;6.72;;
22449;SDS011;11392;57.390;-2.468;2023-05-10T13:31:15;7.95;;;6.40;;
22449;SDS011;11392;57.390;-2.468;2023-05-10T13:33:42;8.85;;;6.68;;
22449;SDS011;11392;57.390;-2.468;2023-05-10T13:36:10;8.23;;;6.75;;
22449;SDS011;11392;57.390;-2.468;2023-05-10T13:38:36;9.40;;;7.90;;
22449;SDS011;11392;57.390;-2.468;2023-05-10T13:41:04;9.73;;;7.45;;
22449;SDS011;11392;57.390;-2.468;2023-05-10T13:43:31;7.80;;;6.88;;
22449;SDS011;11392;57.390;-2.468;2023-05-10T13:45:58;9.05;;;7.53;;
22449;SDS011;11392;57.390;-2.468;2023-05-10T13:48:25;8.82;;;7.93;;
22449;SDS011;11392;57.390;-2.468;2023-05-10T13:50:52;14.48;;;9.48;;
22449;SDS011;11392;57.390;-2.468;2023-05-10T13:53:20;11.05;;;8.77;;
22449;SDS011;11392;57.390;-2.468;2023-05-10T13:55:48;9.13;;;8.23;;
22449;SDS011;11392;57.390;-2.468;2023-05-10T13:58:16;10.52;;;8.13;;
22449;SDS011;11392;57.390;-2.468;2023-05-10T14:00:43;10.18;;;9.20;;
22449;SDS011;11392;57.390;-2.468;2023-05-10T14:03:10;12.25;;;9.30;;
22449;SDS011;11392;57.390;-2.468;2023-05-10T14:05:37;12.05;;;9.00;;
22449;SDS011;11392;57.390;-2.468;2023-05-10T14:08:04;11.68;;;8.60;;
22449;SDS011;11392;57.390;-2.468;2023-05-10T14:10:32;11.45;;;8.95;;
22449;SDS011;11392;57.390;-2.468;2023-05-10T14:12:59;9.98;;;8.68;;
22449;SDS011;11392;57.390;-2.468;2023-05-10T14:15:26;11.85;;;8.98;;
22449;SDS011;11392;57.390;-2.468;2023-05-10T14:17:53;10.25;;;8.20;;
22449;SDS011;11392;57.390;-2.468;2023-05-10T14:20:20;9.95;;;8.70;;
22449;SDS011;11392;57.390;-2.468;2023-05-10T14:22:47;10.73;;;7.93;;
22449;SDS011;11392;57.390;-2.468;2023-05-10T14:25:14;10.73;;;7.43;;
22449;SDS011;11392;57.390;-2.468;2023-05-10T14:27:42;8.73;;;6.78;;
22449;SDS011;11392;57.390;-2.468;2023-05-10T14:30:09;8.85;;;6.50;;
22449;SDS011;11392;57.390;-2.468;2023-05-10T14:32:36;9.75;;;6.30;;
22449;SDS011;11392;57.390;-2.468;2023-05-10T14:35:04;9.65;;;6.65;;
22449;SDS011;11392;57.390;-2.468;2023-05-10T14:37:32;7.20;;;5.78;;
22449;SDS011;11392;57.390;-2.468;2023-05-10T14:39:59;8.57;;;5.65;;
22449;SDS011;11392;57.390;-2.468;2023-05-10T14:42:26;8.10;;;5.47;;
22449;SDS011;11392;57.390;-2.468;2023-05-10T14:44:54;7.53;;;4.63;;
22449;SDS011;11392;57.390;-2.468;2023-05-10T14:47:22;6.82;;;4.82;;
22449;SDS011;11392;57.390;-2.468;2023-05-10T14:49:49;7.35;;;5.10;;
22449;SDS011;11392;57.390;-2.468;2023-05-10T14:52:16;6.30;;;4.57;;
22449;SDS011;11392;57.390;-2.468;2023-05-10T14:54:43;6.32;;;4.57;;
22449;SDS011;11392;57.390;-2.468;2023-05-10T14:57:11;6.22;;;4.25;;
22449;SDS011;11392;57.390;-2.468;2023-05-10T14:59:38;7.60;;;3.80;;
22449;SDS011;11392;57.390;-2.468;2023-05-10T15:02:06;6.07;;;3.97;;
22449;SDS011;11392;57.390;-2.468;2023-05-10T15:04:35;7.05;;;3.63;;
22449;SDS011;11392;57.390;-2.468;2023-05-10T15:07:02;4.43;;;3.10;;
22449;SDS011;11392;57.390;-2.468;2023-05-10T15:09:29;5.55;;;4.32;;